sensor_id;sensor_type;location;lat;lon;timestamp;P1;durP1;ratioP1;P2;durP2;ratioP2
30309;SDS011;17115;50.836;12.078;2023-02-22T01:54:26;16.00;;;14.95;;
30309;SDS011;17115;50.836;12.078;2023-02-22T01:57:25;14.93;;;14.05;;
30309;SDS011;17115;50.836;12.078;2023-02-22T02:00:13;14.27;;;13.43;;
30309;SDS011;17115;50.836;12.078;2023-02-22T02:03:11;20.83;;;19.60;;
30309;SDS011;17115;50.836;12.078;2023-02-22T02:05:58;22.55;;;21.30;;
30309;SDS011;17115;50.836;12.078;2023-02-22T02:11:47;15.13;;;14.10;;
30309;SDS011;17115;50.836;12.078;2023-02-22T02:14:32;19.10;;;17.95;;
30309;SDS011;17115;50.836;12.078;2023-02-22T02:17:18;29.85;;;28.00;;
30309;SDS011;17115;50.836;12.078;2023-02-22T02:34:53;4.07;;;3.88;;
30309;SDS011;17115;50.836;12.078;2023-02-22T02:37:45;2.72;;;2.63;;
30309;SDS011;17115;50.836;12.078;2023-02-22T02:40:32;6.22;;;5.93;;
30309;SDS011;17115;50.836;12.078;2023-02-22T02:43:24;4.18;;;3.97;;
30309;SDS011;17115;50.836;12.078;2023-02-22T02:49:28;4.13;;;3.92;;
30309;SDS011;17115;50.836;12.078;2023-02-22T02:52:05;7.90;;;7.50;;
30309;SDS011;17115;50.836;12.078;2023-02-22T02:54:50;9.30;;;8.77;;
30309;SDS011;17115;50.836;12.078;2023-02-22T02:57:34;11.40;;;10.75;;
30309;SDS011;17115;50.836;12.078;2023-02-22T03:00:19;15.27;;;14.48;;
30309;SDS011;17115;50.836;12.078;2023-02-22T03:06:09;7.38;;;6.95;;
30309;SDS011;17115;50.836;12.078;2023-02-22T03:09:12;13.07;;;12.32;;
30309;SDS011;17115;50.836;12.078;2023-02-22T03:12:04;5.90;;;5.45;;
30309;SDS011;17115;50.836;12.078;2023-02-22T03:14:53;13.80;;;13.00;;
30309;SDS011;17115;50.836;12.078;2023-02-22T03:23:24;8.90;;;8.43;;
30309;SDS011;17115;50.836;12.078;2023-02-22T03:26:56;16.40;;;15.40;;
30309;SDS011;17115;50.836;12.078;2023-02-22T03:29:19;20.02;;;18.83;;
30309;SDS011;17115;50.836;12.078;2023-02-22T03:32:07;18.80;;;17.70;;
30309;SDS011;17115;50.836;12.078;2023-02-22T03:34:53;12.43;;;11.65;;
30309;SDS011;17115;50.836;12.078;2023-02-22T03:37:41;24.17;;;22.67;;
30309;SDS011;17115;50.836;12.078;2023-02-22T03:40:29;14.27;;;13.45;;
30309;SDS011;17115;50.836;12.078;2023-02-22T03:43:17;25.83;;;24.15;;
30309;SDS011;17115;50.836;12.078;2023-02-22T03:46:04;16.17;;;15.20;;
30309;SDS011;17115;50.836;12.078;2023-02-22T03:48:53;9.93;;;9.35;;
30309;SDS011;17115;50.836;12.078;2023-02-22T03:51:40;37.90;;;35.70;;
30309;SDS011;17115;50.836;12.078;2023-02-22T04:55:41;22.17;;;20.92;;
30309;SDS011;17115;50.836;12.078;2023-02-22T04:58:25;16.42;;;15.50;;
30309;SDS011;17115;50.836;12.078;2023-02-22T05:01:10;28.88;;;27.42;;
30309;SDS011;17115;50.836;12.078;2023-02-22T05:03:54;13.32;;;12.57;;
30309;SDS011;17115;50.836;12.078;2023-02-22T05:06:39;14.25;;;13.48;;
30309;SDS011;17115;50.836;12.078;2023-02-22T05:09:23;32.03;;;30.05;;
30309;SDS011;17115;50.836;12.078;2023-02-22T05:12:07;13.20;;;12.43;;
30309;SDS011;17115;50.836;12.078;2023-02-22T05:14:52;23.23;;;21.85;;
30309;SDS011;17115;50.836;12.078;2023-02-22T05:17:36;18.55;;;17.50;;
30309;SDS011;17115;50.836;12.078;2023-02-22T05:23:07;12.45;;;11.60;;
30309;SDS011;17115;50.836;12.078;2023-02-22T05:25:52;18.30;;;17.23;;
30309;SDS011;17115;50.836;12.078;2023-02-22T05:28:37;13.27;;;12.50;;
30309;SDS011;17115;50.836;12.078;2023-02-22T05:31:22;14.82;;;13.98;;
30309;SDS011;17115;50.836;12.078;2023-02-22T05:34:06;11.80;;;11.15;;
30309;SDS011;17115;50.836;12.078;2023-02-22T05:36:51;13.88;;;13.07;;
30309;SDS011;17115;50.836;12.078;2023-02-22T05:39:35;16.15;;;15.18;;
30309;SDS011;17115;50.836;12.078;2023-02-22T05:42:21;17.15;;;16.20;;
30309;SDS011;17115;50.836;12.078;2023-02-22T05:45:06;25.27;;;23.83;;
30309;SDS011;17115;50.836;12.078;2023-02-22T05:47:52;16.98;;;15.98;;
30309;SDS011;17115;50.836;12.078;2023-02-22T05:50:37;20.60;;;19.38;;
30309;SDS011;17115;50.836;12.078;2023-02-22T05:53:23;10.45;;;9.82;;
30309;SDS011;17115;50.836;12.078;2023-02-22T10:06:52;23.80;;;22.38;;
30309;SDS011;17115;50.836;12.078;2023-02-22T10:09:39;21.13;;;19.92;;
30309;SDS011;17115;50.836;12.078;2023-02-22T10:12:29;29.23;;;27.48;;
30309;SDS011;17115;50.836;12.078;2023-02-22T10:27:53;14.45;;;13.35;;
30309;SDS011;17115;50.836;12.078;2023-02-22T10:33:16;26.05;;;24.42;;
30309;SDS011;17115;50.836;12.078;2023-02-22T10:36:07;25.85;;;24.48;;
30309;SDS011;17115;50.836;12.078;2023-02-22T10:39:20;14.65;;;13.85;;
30309;SDS011;17115;50.836;12.078;2023-02-22T10:42:06;28.52;;;26.95;;
30309;SDS011;17115;50.836;12.078;2023-02-22T10:44:52;20.55;;;19.40;;
30309;SDS011;17115;50.836;12.078;2023-02-22T10:47:37;25.25;;;23.73;;
30309;SDS011;17115;50.836;12.078;2023-02-22T10:50:21;18.60;;;17.65;;
30309;SDS011;17115;50.836;12.078;2023-02-22T10:53:07;15.02;;;14.15;;
30309;SDS011;17115;50.836;12.078;2023-02-22T10:59:02;22.02;;;20.77;;
30309;SDS011;17115;50.836;12.078;2023-02-22T11:01:49;12.80;;;12.10;;
30309;SDS011;17115;50.836;12.078;2023-02-22T11:04:44;18.67;;;17.65;;
30309;SDS011;17115;50.836;12.078;2023-02-22T11:07:29;18.02;;;17.02;;
30309;SDS011;17115;50.836;12.078;2023-02-22T11:10:14;15.45;;;14.60;;
30309;SDS011;17115;50.836;12.078;2023-02-22T11:13:25;16.25;;;15.30;;
30309;SDS011;17115;50.836;12.078;2023-02-22T11:19:09;19.80;;;18.70;;
30309;SDS011;17115;50.836;12.078;2023-02-22T11:21:56;19.98;;;18.73;;
30309;SDS011;17115;50.836;12.078;2023-02-22T11:24:48;17.98;;;16.92;;
30309;SDS011;17115;50.836;12.078;2023-02-22T11:27:40;21.23;;;20.00;;
30309;SDS011;17115;50.836;12.078;2023-02-22T11:33:15;18.70;;;17.65;;
30309;SDS011;17115;50.836;12.078;2023-02-22T11:36:01;17.30;;;16.27;;
30309;SDS011;17115;50.836;12.078;2023-02-22T11:38:54;22.63;;;21.25;;
30309;SDS011;17115;50.836;12.078;2023-02-22T11:41:41;30.10;;;28.30;;
30309;SDS011;17115;50.836;12.078;2023-02-22T11:44:27;20.02;;;18.90;;
30309;SDS011;17115;50.836;12.078;2023-02-22T11:47:13;12.05;;;11.38;;
30309;SDS011;17115;50.836;12.078;2023-02-22T11:50:01;14.43;;;13.63;;
30309;SDS011;17115;50.836;12.078;2023-02-22T11:52:48;33.63;;;31.67;;
30309;SDS011;17115;50.836;12.078;2023-02-22T11:56:24;17.02;;;16.05;;
30309;SDS011;17115;50.836;12.078;2023-02-22T13:05:43;14.15;;;12.95;;
30309;SDS011;17115;50.836;12.078;2023-02-22T13:08:33;18.35;;;17.30;;
30309;SDS011;17115;50.836;12.078;2023-02-22T13:11:24;8.77;;;8.07;;
30309;SDS011;17115;50.836;12.078;2023-02-22T13:14:27;15.27;;;14.38;;
30309;SDS011;17115;50.836;12.078;2023-02-22T13:26:17;15.98;;;15.07;;
30309;SDS011;17115;50.836;12.078;2023-02-22T13:43:53;16.73;;;15.70;;
30309;SDS011;17115;50.836;12.078;2023-02-22T13:52:33;21.48;;;20.13;;
30309;SDS011;17115;50.836;12.078;2023-02-22T13:55:22;14.88;;;13.85;;
30309;SDS011;17115;50.836;12.078;2023-02-22T13:58:14;13.68;;;12.88;;
30309;SDS011;17115;50.836;12.078;2023-02-22T14:00:58;19.08;;;17.88;;
30309;SDS011;17115;50.836;12.078;2023-02-22T14:03:43;12.82;;;12.02;;
30309;SDS011;17115;50.836;12.078;2023-02-22T14:06:37;10.57;;;10.02;;
30309;SDS011;17115;50.836;12.078;2023-02-22T14:09:42;13.00;;;12.15;;
30309;SDS011;17115;50.836;12.078;2023-02-22T14:12:47;14.52;;;13.70;;
30309;SDS011;17115;50.836;12.078;2023-02-22T14:15:31;16.63;;;15.40;;
30309;SDS011;17115;50.836;12.078;2023-02-22T14:18:16;25.80;;;24.27;;
30309;SDS011;17115;50.836;12.078;2023-02-22T14:21:05;16.73;;;15.70;;
30309;SDS011;17115;50.836;12.078;2023-02-22T14:23:50;16.20;;;15.23;;
30309;SDS011;17115;50.836;12.078;2023-02-22T14:26:39;17.73;;;16.65;;
30309;SDS011;17115;50.836;12.078;2023-02-22T14:29:24;19.92;;;18.80;;
30309;SDS011;17115;50.836;12.078;2023-02-22T14:32:09;19.60;;;18.45;;
30309;SDS011;17115;50.836;12.078;2023-02-22T14:34:55;18.60;;;17.55;;
30309;SDS011;17115;50.836;12.078;2023-02-22T14:37:47;15.73;;;14.80;;
30309;SDS011;17115;50.836;12.078;2023-02-22T14:40:33;15.75;;;14.70;;
30309;SDS011;17115;50.836;12.078;2023-02-22T14:43:19;11.77;;;11.05;;
30309;SDS011;17115;50.836;12.078;2023-02-22T14:46:07;18.90;;;17.70;;
30309;SDS011;17115;50.836;12.078;2023-02-22T14:48:57;21.95;;;20.70;;
30309;SDS011;17115;50.836;12.078;2023-02-22T14:51:48;13.13;;;12.32;;
30309;SDS011;17115;50.836;12.078;2023-02-22T14:57:43;13.95;;;13.00;;
30309;SDS011;17115;50.836;12.078;2023-02-22T15:00:36;17.05;;;16.02;;
30309;SDS011;17115;50.836;12.078;2023-02-22T16:41:58;36.47;;;34.30;;
30309;SDS011;17115;50.836;12.078;2023-02-22T16:50:50;26.95;;;25.48;;
30309;SDS011;17115;50.836;12.078;2023-02-22T18:07:14;47.20;;;43.45;;
30309;SDS011;17115;50.836;12.078;2023-02-22T18:10:03;37.65;;;34.72;;
30309;SDS011;17115;50.836;12.078;2023-02-22T18:12:48;62.83;;;59.05;;
30309;SDS011;17115;50.836;12.078;2023-02-22T18:15:33;62.03;;;57.67;;
30309;SDS011;17115;50.836;12.078;2023-02-22T18:18:18;66.13;;;61.03;;
30309;SDS011;17115;50.836;12.078;2023-02-22T18:21:06;39.37;;;36.97;;
30309;SDS011;17115;50.836;12.078;2023-02-22T18:23:50;23.50;;;21.80;;
30309;SDS011;17115;50.836;12.078;2023-02-22T18:26:35;32.72;;;30.17;;
30309;SDS011;17115;50.836;12.078;2023-02-22T18:29:21;44.27;;;40.60;;
30309;SDS011;17115;50.836;12.078;2023-02-22T18:32:06;64.27;;;60.00;;
30309;SDS011;17115;50.836;12.078;2023-02-22T18:34:59;43.20;;;39.72;;
30309;SDS011;17115;50.836;12.078;2023-02-22T18:37:43;43.73;;;40.40;;
30309;SDS011;17115;50.836;12.078;2023-02-22T18:40:28;56.45;;;52.40;;
30309;SDS011;17115;50.836;12.078;2023-02-22T18:43:13;43.47;;;40.30;;
30309;SDS011;17115;50.836;12.078;2023-02-22T18:46:07;41.93;;;38.57;;
30309;SDS011;17115;50.836;12.078;2023-02-22T18:48:52;43.57;;;39.83;;
30309;SDS011;17115;50.836;12.078;2023-02-22T18:51:38;52.17;;;48.35;;
30309;SDS011;17115;50.836;12.078;2023-02-22T18:54:27;51.00;;;46.73;;
30309;SDS011;17115;50.836;12.078;2023-02-22T18:57:11;49.70;;;45.80;;
30309;SDS011;17115;50.836;12.078;2023-02-22T18:59:56;82.13;;;76.33;;
30309;SDS011;17115;50.836;12.078;2023-02-22T19:02:41;47.13;;;43.45;;
30309;SDS011;17115;50.836;12.078;2023-02-22T19:05:29;36.80;;;33.93;;
30309;SDS011;17115;50.836;12.078;2023-02-22T19:32:53;39.47;;;36.20;;
30309;SDS011;17115;50.836;12.078;2023-02-22T19:35:38;49.87;;;46.00;;
30309;SDS011;17115;50.836;12.078;2023-02-22T19:38:31;72.30;;;67.10;;
30309;SDS011;17115;50.836;12.078;2023-02-22T19:41:20;52.13;;;48.27;;
30309;SDS011;17115;50.836;12.078;2023-02-22T19:44:05;69.10;;;64.10;;
30309;SDS011;17115;50.836;12.078;2023-02-22T19:46:51;78.93;;;73.60;;
30309;SDS011;17115;50.836;12.078;2023-02-22T19:49:39;44.37;;;40.70;;
30309;SDS011;17115;50.836;12.078;2023-02-22T19:52:24;41.30;;;37.90;;
30309;SDS011;17115;50.836;12.078;2023-02-22T19:55:09;43.07;;;39.63;;
30309;SDS011;17115;50.836;12.078;2023-02-22T19:57:58;43.07;;;39.43;;
30309;SDS011;17115;50.836;12.078;2023-02-22T20:00:42;50.57;;;46.53;;
30309;SDS011;17115;50.836;12.078;2023-02-22T20:03:27;58.57;;;54.20;;
30309;SDS011;17115;50.836;12.078;2023-02-22T20:06:14;43.10;;;39.50;;
30309;SDS011;17115;50.836;12.078;2023-02-22T20:09:00;39.63;;;36.37;;
30309;SDS011;17115;50.836;12.078;2023-02-22T20:11:44;46.13;;;42.40;;
30309;SDS011;17115;50.836;12.078;2023-02-22T20:14:29;55.20;;;51.50;;
30309;SDS011;17115;50.836;12.078;2023-02-22T20:17:15;56.87;;;52.77;;
30309;SDS011;17115;50.836;12.078;2023-02-22T20:19:59;37.57;;;35.07;;
30309;SDS011;17115;50.836;12.078;2023-02-22T20:22:44;44.77;;;41.87;;
30309;SDS011;17115;50.836;12.078;2023-02-22T20:25:29;39.38;;;36.85;;
30309;SDS011;17115;50.836;12.078;2023-02-22T20:28:14;29.03;;;27.13;;
30309;SDS011;17115;50.836;12.078;2023-02-22T20:30:59;47.33;;;44.20;;
30309;SDS011;17115;50.836;12.078;2023-02-22T20:33:45;40.40;;;37.97;;
30309;SDS011;17115;50.836;12.078;2023-02-22T20:36:30;49.57;;;46.40;;
30309;SDS011;17115;50.836;12.078;2023-02-22T20:39:18;61.53;;;57.53;;
30309;SDS011;17115;50.836;12.078;2023-02-22T20:42:03;40.80;;;38.13;;
30309;SDS011;17115;50.836;12.078;2023-02-22T20:44:50;29.97;;;27.83;;
30309;SDS011;17115;50.836;12.078;2023-02-22T20:47:35;32.97;;;30.73;;
30309;SDS011;17115;50.836;12.078;2023-02-22T20:50:21;57.23;;;53.63;;
30309;SDS011;17115;50.836;12.078;2023-02-22T20:53:43;33.70;;;31.37;;
30309;SDS011;17115;50.836;12.078;2023-02-22T20:56:34;39.27;;;37.13;;
30309;SDS011;17115;50.836;12.078;2023-02-22T20:59:30;30.07;;;27.97;;
30309;SDS011;17115;50.836;12.078;2023-02-22T21:02:22;24.63;;;23.20;;
30309;SDS011;17115;50.836;12.078;2023-02-22T21:05:07;23.10;;;21.75;;
30309;SDS011;17115;50.836;12.078;2023-02-22T21:07:54;51.22;;;48.30;;
30309;SDS011;17115;50.836;12.078;2023-02-22T21:10:45;21.67;;;20.30;;
30309;SDS011;17115;50.836;12.078;2023-02-22T21:13:35;31.52;;;29.13;;
30309;SDS011;17115;50.836;12.078;2023-02-22T21:16:25;1.23;;;0.73;;
30309;SDS011;17115;50.836;12.078;2023-02-22T21:19:12;0.63;;;0.50;;
30309;SDS011;17115;50.836;12.078;2023-02-22T21:22:20;1.10;;;1.00;;
30309;SDS011;17115;50.836;12.078;2023-02-22T21:25:05;2.50;;;1.83;;
30309;SDS011;17115;50.836;12.078;2023-02-22T21:27:51;5.68;;;2.67;;
30309;SDS011;17115;50.836;12.078;2023-02-22T21:30:36;0.93;;;0.75;;
30309;SDS011;17115;50.836;12.078;2023-02-22T21:48:47;4.85;;;0.65;;
30309;SDS011;17115;50.836;12.078;2023-02-22T21:51:33;0.20;;;0.20;;
30309;SDS011;17115;50.836;12.078;2023-02-22T21:54:19;0.43;;;0.43;;
30309;SDS011;17115;50.836;12.078;2023-02-22T21:57:06;0.70;;;0.70;;
30309;SDS011;17115;50.836;12.078;2023-02-22T21:59:50;1.42;;;1.30;;
30309;SDS011;17115;50.836;12.078;2023-02-22T22:02:37;0.00;;;0.00;;
30309;SDS011;17115;50.836;12.078;2023-02-22T22:05:23;0.15;;;0.15;;
30309;SDS011;17115;50.836;12.078;2023-02-22T22:08:18;0.65;;;0.65;;
30309;SDS011;17115;50.836;12.078;2023-02-22T22:11:04;0.63;;;0.63;;
30309;SDS011;17115;50.836;12.078;2023-02-22T22:13:48;1.10;;;0.43;;
30309;SDS011;17115;50.836;12.078;2023-02-22T22:16:34;5.22;;;2.45;;
30309;SDS011;17115;50.836;12.078;2023-02-22T22:19:21;0.50;;;0.50;;
30309;SDS011;17115;50.836;12.078;2023-02-22T22:22:06;0.75;;;0.73;;
30309;SDS011;17115;50.836;12.078;2023-02-22T22:24:51;0.15;;;0.15;;
30309;SDS011;17115;50.836;12.078;2023-02-22T22:27:37;0.35;;;0.35;;
30309;SDS011;17115;50.836;12.078;2023-02-22T22:30:21;0.00;;;0.00;;
30309;SDS011;17115;50.836;12.078;2023-02-22T22:33:06;0.80;;;0.75;;
30309;SDS011;17115;50.836;12.078;2023-02-22T22:35:57;0.55;;;0.55;;
30309;SDS011;17115;50.836;12.078;2023-02-22T22:38:42;0.75;;;0.73;;
30309;SDS011;17115;50.836;12.078;2023-02-22T22:41:30;0.40;;;0.40;;
30309;SDS011;17115;50.836;12.078;2023-02-22T23:46:04;0.70;;;0.30;;
30309;SDS011;17115;50.836;12.078;2023-02-22T23:48:53;0.17;;;0.17;;
30309;SDS011;17115;50.836;12.078;2023-02-22T23:51:45;0.88;;;0.88;;
30309;SDS011;17115;50.836;12.078;2023-02-22T23:54:30;1.20;;;0.80;;
30309;SDS011;17115;50.836;12.078;2023-02-22T23:57:19;0.00;;;0.00;;
